Hawk — LAGF7 — position and weather

sailwx.info

Track history (hours):
 
Tides and Currents Weather Stations Pressure Air Temp Water Temp Dewpoint Dewpoint Depression Visibility Wind Speed Wind Dir Waves Ship Positions

Hawk

Last reported at 2018-Feb-20 22:46 UTC. Time now 2018-Feb-22 19:14 UTC.
Position N 01°14' E 104°03'.

Length 223 m; draft 10.7 m.

Type: Cargo ship. MMSI: 259848000.

Date/timePositionNaut miles runAvg speedWind from/ knotsBaromVisibWave heightAir tempDewpointWater temp
2018-Feb-20 22:46N 01°14' E 104°03'310.5
2018-Feb-20 22:29N 01°14' E 104°00'3 6.9
2018-Feb-20 22:00N 01°13' E 103°57'2 4.5
2018-Feb-20 21:30N 01°13' E 103°55'3 6.7
2018-Feb-20 21:00N 01°11' E 103°52'4 8.2
2018-Feb-20 20:30N 01°10' E 103°48'4 7.7
2018-Feb-20 19:58N 01°07' E 103°45'4 7.2
2018-Feb-20 19:29N 01°05' E 103°42'4 7.1
2018-Feb-20 18:57N 01°03' E 103°39'4 8.7
2018-Feb-20 18:30N 01°04' E 103°36'5 9.8
2018-Feb-20 18:00N 01°07' E 103°32'510.9
2018-Feb-20 17:30N 01°10' E 103°27'710.6
2018-Feb-20 16:52N 01°14' E 103°21'  
Track history (hours):
 
Tides and Currents Weather Stations Pressure Air Temp Water Temp Dewpoint Dewpoint Depression Visibility Wind Speed Wind Dir Waves Ship Positions

Hawk

Last reported at 2018-Feb-20 22:46 UTC. Time now 2018-Feb-22 19:14 UTC.
Position N 01°14' E 104°03'.

Length 223 m; draft 10.7 m.

Type: Cargo ship. MMSI: 259848000.

Date/timePositionNaut miles runAvg speedWind from/ knotsBaromVisibWave heightAir tempDewpointWater temp
2018-Feb-20 22:46N 01°14' E 104°03'310.5
2018-Feb-20 22:29N 01°14' E 104°00'3 6.9
2018-Feb-20 22:00N 01°13' E 103°57'2 4.5
2018-Feb-20 21:30N 01°13' E 103°55'3 6.7
2018-Feb-20 21:00N 01°11' E 103°52'4 8.2
2018-Feb-20 20:30N 01°10' E 103°48'4 7.7
2018-Feb-20 19:58N 01°07' E 103°45'4 7.2
2018-Feb-20 19:29N 01°05' E 103°42'4 7.1
2018-Feb-20 18:57N 01°03' E 103°39'4 8.7
2018-Feb-20 18:30N 01°04' E 103°36'5 9.8
2018-Feb-20 18:00N 01°07' E 103°32'510.9
2018-Feb-20 17:30N 01°10' E 103°27'710.6
2018-Feb-20 16:52N 01°14' E 103°21'  

Dump ship's entire track history